sensor_id;sensor_type;location;lat;lon;timestamp;temperature;humidity
5850;DHT22;2951;47.712;9.400;2022-10-26T00:01:58;13.00;99.90
5850;DHT22;2951;47.712;9.400;2022-10-26T00:04:25;13.00;99.90
5850;DHT22;2951;47.712;9.400;2022-10-26T00:06:52;13.10;99.90
5850;DHT22;2951;47.712;9.400;2022-10-26T00:09:18;13.10;99.90
5850;DHT22;2951;47.712;9.400;2022-10-26T00:11:45;13.10;99.90
5850;DHT22;2951;47.712;9.400;2022-10-26T00:14:11;13.20;99.90
5850;DHT22;2951;47.712;9.400;2022-10-26T00:16:38;13.20;99.90
5850;DHT22;2951;47.712;9.400;2022-10-26T00:19:05;13.20;99.90
5850;DHT22;2951;47.712;9.400;2022-10-26T00:21:31;13.20;99.90
5850;DHT22;2951;47.712;9.400;2022-10-26T00:23:58;13.20;99.90
5850;DHT22;2951;47.712;9.400;2022-10-26T00:26:25;13.20;99.90
5850;DHT22;2951;47.712;9.400;2022-10-26T00:28:52;13.20;99.90
5850;DHT22;2951;47.712;9.400;2022-10-26T00:31:20;13.20;99.90
5850;DHT22;2951;47.712;9.400;2022-10-26T00:33:46;13.20;99.90
5850;DHT22;2951;47.712;9.400;2022-10-26T00:36:13;13.20;99.90
5850;DHT22;2951;47.712;9.400;2022-10-26T00:38:42;13.20;99.90
5850;DHT22;2951;47.712;9.400;2022-10-26T00:41:14;13.20;99.90
5850;DHT22;2951;47.712;9.400;2022-10-26T00:43:41;13.30;99.90
5850;DHT22;2951;47.712;9.400;2022-10-26T00:46:12;13.20;99.90
5850;DHT22;2951;47.712;9.400;2022-10-26T00:48:42;13.20;99.90
5850;DHT22;2951;47.712;9.400;2022-10-26T00:51:14;13.20;99.90
5850;DHT22;2951;47.712;9.400;2022-10-26T00:53:42;13.10;99.90
5850;DHT22;2951;47.712;9.400;2022-10-26T00:56:09;13.10;99.90
5850;DHT22;2951;47.712;9.400;2022-10-26T00:58:36;13.10;99.90
5850;DHT22;2951;47.712;9.400;2022-10-26T01:01:04;13.10;99.90
5850;DHT22;2951;47.712;9.400;2022-10-26T01:03:31;13.20;99.90
5850;DHT22;2951;47.712;9.400;2022-10-26T01:05:59;13.10;99.90
5850;DHT22;2951;47.712;9.400;2022-10-26T01:08:25;13.00;99.90
5850;DHT22;2951;47.712;9.400;2022-10-26T01:10:54;13.10;99.90
5850;DHT22;2951;47.712;9.400;2022-10-26T01:13:21;13.00;99.90
5850;DHT22;2951;47.712;9.400;2022-10-26T01:31:08;12.90;99.90
5850;DHT22;2951;47.712;9.400;2022-10-26T01:33:38;12.90;99.90
5850;DHT22;2951;47.712;9.400;2022-10-26T01:36:11;12.80;99.90
5850;DHT22;2951;47.712;9.400;2022-10-26T01:41:28;12.90;99.90
5850;DHT22;2951;47.712;9.400;2022-10-26T01:43:54;12.80;99.90
5850;DHT22;2951;47.712;9.400;2022-10-26T01:46:22;12.80;99.90
5850;DHT22;2951;47.712;9.400;2022-10-26T01:48:50;12.80;99.90
5850;DHT22;2951;47.712;9.400;2022-10-26T01:51:19;12.70;99.90
5850;DHT22;2951;47.712;9.400;2022-10-26T01:53:46;12.70;99.90
5850;DHT22;2951;47.712;9.400;2022-10-26T01:56:22;12.60;99.90
5850;DHT22;2951;47.712;9.400;2022-10-26T01:58:55;12.60;99.90
5850;DHT22;2951;47.712;9.400;2022-10-26T02:04:06;12.60;99.90
5850;DHT22;2951;47.712;9.400;2022-10-26T02:11:34;12.50;99.90
5850;DHT22;2951;47.712;9.400;2022-10-26T02:14:07;12.50;99.90
5850;DHT22;2951;47.712;9.400;2022-10-26T02:16:40;12.50;99.90
5850;DHT22;2951;47.712;9.400;2022-10-26T02:21:40;12.40;99.90
5850;DHT22;2951;47.712;9.400;2022-10-26T02:24:09;12.30;99.90
5850;DHT22;2951;47.712;9.400;2022-10-26T02:26:37;12.30;99.90
5850;DHT22;2951;47.712;9.400;2022-10-26T02:29:06;12.20;99.90
5850;DHT22;2951;47.712;9.400;2022-10-26T02:31:34;12.20;99.90
5850;DHT22;2951;47.712;9.400;2022-10-26T02:34:02;12.10;99.90
5850;DHT22;2951;47.712;9.400;2022-10-26T02:36:30;11.90;99.90
5850;DHT22;2951;47.712;9.400;2022-10-26T02:39:00;11.80;99.90
5850;DHT22;2951;47.712;9.400;2022-10-26T02:41:28;11.70;99.90
5850;DHT22;2951;47.712;9.400;2022-10-26T02:43:58;11.70;99.90
5850;DHT22;2951;47.712;9.400;2022-10-26T02:46:25;11.60;99.90
5850;DHT22;2951;47.712;9.400;2022-10-26T02:48:54;11.80;99.90
5850;DHT22;2951;47.712;9.400;2022-10-26T02:51:34;11.90;99.90
5850;DHT22;2951;47.712;9.400;2022-10-26T02:56:40;12.20;99.90
5850;DHT22;2951;47.712;9.400;2022-10-26T02:59:08;12.30;99.90
5850;DHT22;2951;47.712;9.400;2022-10-26T03:01:35;12.40;99.90
5850;DHT22;2951;47.712;9.400;2022-10-26T03:04:02;12.30;99.90
5850;DHT22;2951;47.712;9.400;2022-10-26T03:06:29;12.30;99.90
5850;DHT22;2951;47.712;9.400;2022-10-26T03:08:55;12.40;99.90
5850;DHT22;2951;47.712;9.400;2022-10-26T03:11:22;12.40;99.90
5850;DHT22;2951;47.712;9.400;2022-10-26T03:13:48;12.50;99.90
5850;DHT22;2951;47.712;9.400;2022-10-26T03:16:15;12.50;99.90
5850;DHT22;2951;47.712;9.400;2022-10-26T03:18:42;12.60;99.90
5850;DHT22;2951;47.712;9.400;2022-10-26T03:21:08;12.80;99.90
5850;DHT22;2951;47.712;9.400;2022-10-26T03:23:35;12.80;99.90
5850;DHT22;2951;47.712;9.400;2022-10-26T03:26:01;12.90;99.90
5850;DHT22;2951;47.712;9.400;2022-10-26T03:28:28;12.90;99.90
5850;DHT22;2951;47.712;9.400;2022-10-26T03:30:55;12.90;99.90
5850;DHT22;2951;47.712;9.400;2022-10-26T03:33:21;12.80;99.90
5850;DHT22;2951;47.712;9.400;2022-10-26T03:35:54;12.80;99.90
5850;DHT22;2951;47.712;9.400;2022-10-26T03:38:22;12.80;99.90
5850;DHT22;2951;47.712;9.400;2022-10-26T03:40:48;12.70;99.90
5850;DHT22;2951;47.712;9.400;2022-10-26T03:43:15;12.60;99.90
5850;DHT22;2951;47.712;9.400;2022-10-26T03:45:42;12.60;99.90
5850;DHT22;2951;47.712;9.400;2022-10-26T03:48:08;12.60;99.90
5850;DHT22;2951;47.712;9.400;2022-10-26T03:50:35;12.50;99.90
5850;DHT22;2951;47.712;9.400;2022-10-26T03:53:02;12.50;99.90
5850;DHT22;2951;47.712;9.400;2022-10-26T03:55:28;12.50;99.90
5850;DHT22;2951;47.712;9.400;2022-10-26T03:57:55;12.50;99.90
5850;DHT22;2951;47.712;9.400;2022-10-26T04:00:21;12.50;99.90
5850;DHT22;2951;47.712;9.400;2022-10-26T04:02:54;12.60;99.90
5850;DHT22;2951;47.712;9.400;2022-10-26T04:05:21;12.60;99.90
5850;DHT22;2951;47.712;9.400;2022-10-26T04:07:57;12.50;99.90
5850;DHT22;2951;47.712;9.400;2022-10-26T04:10:25;12.60;99.90
5850;DHT22;2951;47.712;9.400;2022-10-26T04:12:53;12.60;99.90
5850;DHT22;2951;47.712;9.400;2022-10-26T04:15:19;12.60;99.90
5850;DHT22;2951;47.712;9.400;2022-10-26T04:17:46;12.60;99.90
5850;DHT22;2951;47.712;9.400;2022-10-26T04:20:13;12.60;99.90
5850;DHT22;2951;47.712;9.400;2022-10-26T04:22:40;12.60;99.90
5850;DHT22;2951;47.712;9.400;2022-10-26T04:25:07;12.60;99.90
5850;DHT22;2951;47.712;9.400;2022-10-26T04:27:34;12.60;99.90
5850;DHT22;2951;47.712;9.400;2022-10-26T04:30:00;12.60;99.90
5850;DHT22;2951;47.712;9.400;2022-10-26T04:32:27;12.60;99.90
5850;DHT22;2951;47.712;9.400;2022-10-26T04:34:54;12.70;99.90
5850;DHT22;2951;47.712;9.400;2022-10-26T04:37:20;12.70;99.90
5850;DHT22;2951;47.712;9.400;2022-10-26T04:39:47;12.70;99.90
5850;DHT22;2951;47.712;9.400;2022-10-26T04:42:14;12.70;99.90
5850;DHT22;2951;47.712;9.400;2022-10-26T04:44:40;12.70;99.90
5850;DHT22;2951;47.712;9.400;2022-10-26T04:47:07;12.70;99.90
5850;DHT22;2951;47.712;9.400;2022-10-26T04:49:34;12.70;99.90
5850;DHT22;2951;47.712;9.400;2022-10-26T04:52:00;12.70;99.90
5850;DHT22;2951;47.712;9.400;2022-10-26T04:54:27;12.70;99.90
5850;DHT22;2951;47.712;9.400;2022-10-26T04:56:53;12.70;99.90
5850;DHT22;2951;47.712;9.400;2022-10-26T04:59:20;12.70;99.90
5850;DHT22;2951;47.712;9.400;2022-10-26T05:01:47;12.70;99.90
5850;DHT22;2951;47.712;9.400;2022-10-26T05:04:13;12.70;99.90
5850;DHT22;2951;47.712;9.400;2022-10-26T05:06:40;12.80;99.90
5850;DHT22;2951;47.712;9.400;2022-10-26T05:09:07;12.80;99.90
5850;DHT22;2951;47.712;9.400;2022-10-26T05:11:34;12.70;99.90
5850;DHT22;2951;47.712;9.400;2022-10-26T05:14:00;12.70;99.90
5850;DHT22;2951;47.712;9.400;2022-10-26T05:16:27;12.60;99.90
5850;DHT22;2951;47.712;9.400;2022-10-26T05:18:53;12.60;99.90
5850;DHT22;2951;47.712;9.400;2022-10-26T05:21:20;12.60;99.90
5850;DHT22;2951;47.712;9.400;2022-10-26T05:23:50;12.60;99.90
5850;DHT22;2951;47.712;9.400;2022-10-26T05:26:21;12.60;99.90
5850;DHT22;2951;47.712;9.400;2022-10-26T05:28:48;12.60;99.90
5850;DHT22;2951;47.712;9.400;2022-10-26T05:31:14;12.60;99.90
5850;DHT22;2951;47.712;9.400;2022-10-26T05:33:41;12.60;99.90
5850;DHT22;2951;47.712;9.400;2022-10-26T05:36:08;12.60;99.90
5850;DHT22;2951;47.712;9.400;2022-10-26T05:38:34;12.60;99.90
5850;DHT22;2951;47.712;9.400;2022-10-26T05:41:01;12.50;99.90
5850;DHT22;2951;47.712;9.400;2022-10-26T05:43:28;12.50;99.90
5850;DHT22;2951;47.712;9.400;2022-10-26T05:45:55;12.40;99.90
5850;DHT22;2951;47.712;9.400;2022-10-26T05:48:22;12.40;99.90
5850;DHT22;2951;47.712;9.400;2022-10-26T05:50:48;12.40;99.90
5850;DHT22;2951;47.712;9.400;2022-10-26T05:53:15;12.40;99.90
5850;DHT22;2951;47.712;9.400;2022-10-26T05:55:46;12.40;99.90
5850;DHT22;2951;47.712;9.400;2022-10-26T05:58:13;12.40;99.90
5850;DHT22;2951;47.712;9.400;2022-10-26T06:00:44;12.40;99.90
5850;DHT22;2951;47.712;9.400;2022-10-26T06:03:27;12.40;99.90
5850;DHT22;2951;47.712;9.400;2022-10-26T06:06:01;12.40;99.90
5850;DHT22;2951;47.712;9.400;2022-10-26T06:08:29;12.40;99.90
5850;DHT22;2951;47.712;9.400;2022-10-26T06:10:56;12.40;99.90
5850;DHT22;2951;47.712;9.400;2022-10-26T06:13:25;12.40;99.90
5850;DHT22;2951;47.712;9.400;2022-10-26T06:18:34;12.50;99.90
5850;DHT22;2951;47.712;9.400;2022-10-26T06:31:31;12.60;99.90
5850;DHT22;2951;47.712;9.400;2022-10-26T06:33:58;12.60;99.90
5850;DHT22;2951;47.712;9.400;2022-10-26T06:36:26;12.60;99.90
5850;DHT22;2951;47.712;9.400;2022-10-26T06:38:54;12.60;99.90
5850;DHT22;2951;47.712;9.400;2022-10-26T06:41:23;12.60;99.90
5850;DHT22;2951;47.712;9.400;2022-10-26T06:43:50;12.50;99.90
5850;DHT22;2951;47.712;9.400;2022-10-26T06:46:38;12.40;99.90
5850;DHT22;2951;47.712;9.400;2022-10-26T06:49:09;12.40;99.90
5850;DHT22;2951;47.712;9.400;2022-10-26T06:51:44;12.50;99.90
5850;DHT22;2951;47.712;9.400;2022-10-26T06:56:45;12.70;99.90
5850;DHT22;2951;47.712;9.400;2022-10-26T06:59:13;12.70;99.90
5850;DHT22;2951;47.712;9.400;2022-10-26T07:01:41;12.70;99.90
5850;DHT22;2951;47.712;9.400;2022-10-26T07:04:08;12.70;99.90
5850;DHT22;2951;47.712;9.400;2022-10-26T07:06:35;12.80;99.90
5850;DHT22;2951;47.712;9.400;2022-10-26T07:09:03;12.80;99.90
5850;DHT22;2951;47.712;9.400;2022-10-26T07:11:30;12.80;99.90
5850;DHT22;2951;47.712;9.400;2022-10-26T07:13:57;12.80;99.90
5850;DHT22;2951;47.712;9.400;2022-10-26T07:16:23;12.80;99.90
5850;DHT22;2951;47.712;9.400;2022-10-26T07:18:50;12.80;99.90
5850;DHT22;2951;47.712;9.400;2022-10-26T07:21:17;12.90;99.90
5850;DHT22;2951;47.712;9.400;2022-10-26T07:23:43;12.90;99.90
5850;DHT22;2951;47.712;9.400;2022-10-26T07:26:10;13.00;99.90
5850;DHT22;2951;47.712;9.400;2022-10-26T07:28:37;13.00;99.90
5850;DHT22;2951;47.712;9.400;2022-10-26T07:31:03;13.00;99.90
5850;DHT22;2951;47.712;9.400;2022-10-26T07:33:30;13.10;99.90
5850;DHT22;2951;47.712;9.400;2022-10-26T07:35:58;13.10;99.90
5850;DHT22;2951;47.712;9.400;2022-10-26T07:38:24;13.10;99.90
5850;DHT22;2951;47.712;9.400;2022-10-26T07:40:51;13.20;99.90
5850;DHT22;2951;47.712;9.400;2022-10-26T07:43:19;13.20;99.90
5850;DHT22;2951;47.712;9.400;2022-10-26T07:45:49;13.20;99.90
5850;DHT22;2951;47.712;9.400;2022-10-26T07:48:17;13.10;99.90
5850;DHT22;2951;47.712;9.400;2022-10-26T07:50:43;13.10;99.90
5850;DHT22;2951;47.712;9.400;2022-10-26T07:53:10;13.10;99.90
5850;DHT22;2951;47.712;9.400;2022-10-26T07:55:36;13.20;99.90
5850;DHT22;2951;47.712;9.400;2022-10-26T07:58:03;13.20;99.90
5850;DHT22;2951;47.712;9.400;2022-10-26T08:00:30;13.20;99.90
5850;DHT22;2951;47.712;9.400;2022-10-26T08:02:57;13.20;99.90
5850;DHT22;2951;47.712;9.400;2022-10-26T08:05:23;13.20;99.90
5850;DHT22;2951;47.712;9.400;2022-10-26T08:07:51;13.20;99.90
5850;DHT22;2951;47.712;9.400;2022-10-26T08:10:18;13.30;99.90
5850;DHT22;2951;47.712;9.400;2022-10-26T08:12:44;13.30;99.90
5850;DHT22;2951;47.712;9.400;2022-10-26T08:15:11;13.30;99.90
5850;DHT22;2951;47.712;9.400;2022-10-26T08:17:38;13.30;99.90
5850;DHT22;2951;47.712;9.400;2022-10-26T08:20:04;13.40;99.90
5850;DHT22;2951;47.712;9.400;2022-10-26T08:22:31;13.50;99.90
5850;DHT22;2951;47.712;9.400;2022-10-26T08:24:58;13.60;99.90
5850;DHT22;2951;47.712;9.400;2022-10-26T08:27:25;13.70;99.90
5850;DHT22;2951;47.712;9.400;2022-10-26T08:29:51;13.80;99.90
5850;DHT22;2951;47.712;9.400;2022-10-26T08:32:18;13.90;99.90
5850;DHT22;2951;47.712;9.400;2022-10-26T08:34:44;14.00;99.90
5850;DHT22;2951;47.712;9.400;2022-10-26T08:37:11;14.00;99.90
5850;DHT22;2951;47.712;9.400;2022-10-26T08:39:38;14.00;99.90
5850;DHT22;2951;47.712;9.400;2022-10-26T08:42:16;14.00;99.90
5850;DHT22;2951;47.712;9.400;2022-10-26T08:44:45;14.00;99.90
5850;DHT22;2951;47.712;9.400;2022-10-26T08:47:17;14.00;99.90
5850;DHT22;2951;47.712;9.400;2022-10-26T08:49:47;14.00;99.90
5850;DHT22;2951;47.712;9.400;2022-10-26T08:52:16;14.20;99.90
5850;DHT22;2951;47.712;9.400;2022-10-26T08:54:54;14.10;99.90
5850;DHT22;2951;47.712;9.400;2022-10-26T08:57:40;14.30;99.90
5850;DHT22;2951;47.712;9.400;2022-10-26T09:00:11;14.30;99.90
5850;DHT22;2951;47.712;9.400;2022-10-26T09:02:40;14.40;99.90
5850;DHT22;2951;47.712;9.400;2022-10-26T09:05:14;14.50;99.90
5850;DHT22;2951;47.712;9.400;2022-10-26T09:10:26;14.90;99.90
5850;DHT22;2951;47.712;9.400;2022-10-26T09:13:05;14.90;99.90
5850;DHT22;2951;47.712;9.400;2022-10-26T09:26:01;14.50;99.90
5850;DHT22;2951;47.712;9.400;2022-10-26T09:28:31;14.50;99.90
5850;DHT22;2951;47.712;9.400;2022-10-26T09:30:59;14.50;99.90
5850;DHT22;2951;47.712;9.400;2022-10-26T09:33:27;14.60;99.90
5850;DHT22;2951;47.712;9.400;2022-10-26T09:35:56;14.60;99.90
5850;DHT22;2951;47.712;9.400;2022-10-26T09:38:35;14.60;99.90
5850;DHT22;2951;47.712;9.400;2022-10-26T09:43:46;14.80;99.90
5850;DHT22;2951;47.712;9.400;2022-10-26T09:46:17;14.80;99.90
5850;DHT22;2951;47.712;9.400;2022-10-26T09:48:50;14.90;99.90
5850;DHT22;2951;47.712;9.400;2022-10-26T09:51:19;15.00;99.90
5850;DHT22;2951;47.712;9.400;2022-10-26T09:53:46;15.10;99.90
5850;DHT22;2951;47.712;9.400;2022-10-26T09:56:14;15.20;99.90
5850;DHT22;2951;47.712;9.400;2022-10-26T09:58:43;15.40;99.90
5850;DHT22;2951;47.712;9.400;2022-10-26T10:03:48;15.40;99.90
5850;DHT22;2951;47.712;9.400;2022-10-26T10:06:33;15.60;99.90
5850;DHT22;2951;47.712;9.400;2022-10-26T10:09:04;15.80;99.90
5850;DHT22;2951;47.712;9.400;2022-10-26T10:11:51;16.00;99.90
5850;DHT22;2951;47.712;9.400;2022-10-26T10:14:40;16.20;99.90
5850;DHT22;2951;47.712;9.400;2022-10-26T10:17:21;16.30;99.90
5850;DHT22;2951;47.712;9.400;2022-10-26T10:19:48;16.30;99.90
5850;DHT22;2951;47.712;9.400;2022-10-26T10:25:20;16.40;99.90
5850;DHT22;2951;47.712;9.400;2022-10-26T10:27:32;16.50;99.90
5850;DHT22;2951;47.712;9.400;2022-10-26T10:30:18;16.60;99.90
5850;DHT22;2951;47.712;9.400;2022-10-26T10:32:45;16.60;99.90
5850;DHT22;2951;47.712;9.400;2022-10-26T10:35:22;16.70;99.90
5850;DHT22;2951;47.712;9.400;2022-10-26T10:37:49;16.70;99.90
5850;DHT22;2951;47.712;9.400;2022-10-26T10:40:17;16.80;99.90
5850;DHT22;2951;47.712;9.400;2022-10-26T10:42:45;16.80;99.90
5850;DHT22;2951;47.712;9.400;2022-10-26T10:45:22;16.80;99.90
5850;DHT22;2951;47.712;9.400;2022-10-26T10:48:00;16.80;99.90
5850;DHT22;2951;47.712;9.400;2022-10-26T10:50:28;17.00;99.90
5850;DHT22;2951;47.712;9.400;2022-10-26T10:53:14;17.10;99.90
5850;DHT22;2951;47.712;9.400;2022-10-26T10:55:51;17.30;99.90
5850;DHT22;2951;47.712;9.400;2022-10-26T11:00:46;17.60;99.90
5850;DHT22;2951;47.712;9.400;2022-10-26T11:06:08;17.80;99.90
5850;DHT22;2951;47.712;9.400;2022-10-26T11:11:26;17.80;99.90
5850;DHT22;2951;47.712;9.400;2022-10-26T11:13:55;18.00;99.90
5850;DHT22;2951;47.712;9.400;2022-10-26T11:16:30;18.10;99.90
5850;DHT22;2951;47.712;9.400;2022-10-26T11:18:59;18.20;99.90
5850;DHT22;2951;47.712;9.400;2022-10-26T11:21:28;18.30;99.90
5850;DHT22;2951;47.712;9.400;2022-10-26T11:24:02;18.30;99.90
5850;DHT22;2951;47.712;9.400;2022-10-26T11:26:40;18.30;99.90
5850;DHT22;2951;47.712;9.400;2022-10-26T11:32:00;18.30;99.90
5850;DHT22;2951;47.712;9.400;2022-10-26T11:34:36;18.40;99.90
5850;DHT22;2951;47.712;9.400;2022-10-26T11:37:08;18.30;99.90
5850;DHT22;2951;47.712;9.400;2022-10-26T11:39:37;18.30;99.90
5850;DHT22;2951;47.712;9.400;2022-10-26T11:42:10;18.20;99.90
5850;DHT22;2951;47.712;9.400;2022-10-26T11:44:49;18.40;99.90
5850;DHT22;2951;47.712;9.400;2022-10-26T11:47:20;18.40;99.90
5850;DHT22;2951;47.712;9.400;2022-10-26T11:50:03;18.50;99.90
5850;DHT22;2951;47.712;9.400;2022-10-26T11:52:37;18.60;99.90
5850;DHT22;2951;47.712;9.400;2022-10-26T11:55:07;18.60;99.90
5850;DHT22;2951;47.712;9.400;2022-10-26T11:57:34;18.70;99.90
5850;DHT22;2951;47.712;9.400;2022-10-26T12:00:13;18.80;99.90
5850;DHT22;2951;47.712;9.400;2022-10-26T12:02:42;18.80;99.90
5850;DHT22;2951;47.712;9.400;2022-10-26T12:07:50;19.00;99.90
5850;DHT22;2951;47.712;9.400;2022-10-26T12:10:37;19.10;99.90
5850;DHT22;2951;47.712;9.400;2022-10-26T12:16:39;19.00;99.90
5850;DHT22;2951;47.712;9.400;2022-10-26T12:21:16;19.20;99.90
5850;DHT22;2951;47.712;9.400;2022-10-26T12:23:53;19.30;99.90
5850;DHT22;2951;47.712;9.400;2022-10-26T12:39:34;19.50;99.90
5850;DHT22;2951;47.712;9.400;2022-10-26T12:46:58;19.50;99.90
5850;DHT22;2951;47.712;9.400;2022-10-26T12:52:18;19.60;99.90
5850;DHT22;2951;47.712;9.400;2022-10-26T12:54:53;19.60;99.90
5850;DHT22;2951;47.712;9.400;2022-10-26T12:57:29;19.60;99.90
5850;DHT22;2951;47.712;9.400;2022-10-26T13:00:01;19.60;99.90
5850;DHT22;2951;47.712;9.400;2022-10-26T13:08:28;19.60;99.90
5850;DHT22;2951;47.712;9.400;2022-10-26T13:11:01;19.60;99.90
5850;DHT22;2951;47.712;9.400;2022-10-26T13:13:28;19.60;99.90
5850;DHT22;2951;47.712;9.400;2022-10-26T13:15:57;19.70;99.90
5850;DHT22;2951;47.712;9.400;2022-10-26T13:18:24;19.80;99.90
5850;DHT22;2951;47.712;9.400;2022-10-26T13:21:06;20.00;99.90
5850;DHT22;2951;47.712;9.400;2022-10-26T13:23:37;20.10;99.90
5850;DHT22;2951;47.712;9.400;2022-10-26T13:26:12;20.20;99.90
5850;DHT22;2951;47.712;9.400;2022-10-26T13:31:10;20.40;99.90
5850;DHT22;2951;47.712;9.400;2022-10-26T13:33:40;20.60;99.90
5850;DHT22;2951;47.712;9.400;2022-10-26T13:38:52;20.80;99.90
5850;DHT22;2951;47.712;9.400;2022-10-26T13:41:39;20.80;99.90
5850;DHT22;2951;47.712;9.400;2022-10-26T13:44:22;20.80;99.90
5850;DHT22;2951;47.712;9.400;2022-10-26T13:46:54;20.70;99.90
5850;DHT22;2951;47.712;9.400;2022-10-26T13:49:32;20.50;99.90
5850;DHT22;2951;47.712;9.400;2022-10-26T13:52:00;20.70;99.90
5850;DHT22;2951;47.712;9.400;2022-10-26T13:54:35;20.80;99.90
5850;DHT22;2951;47.712;9.400;2022-10-26T13:57:10;21.10;99.90
5850;DHT22;2951;47.712;9.400;2022-10-26T13:59:39;20.90;99.90
5850;DHT22;2951;47.712;9.400;2022-10-26T14:02:16;20.70;99.90
5850;DHT22;2951;47.712;9.400;2022-10-26T14:04:47;21.00;99.90
5850;DHT22;2951;47.712;9.400;2022-10-26T14:07:15;21.10;99.90
5850;DHT22;2951;47.712;9.400;2022-10-26T14:09:43;20.90;99.90
5850;DHT22;2951;47.712;9.400;2022-10-26T14:12:14;20.90;99.90
5850;DHT22;2951;47.712;9.400;2022-10-26T14:14:42;20.80;99.90
5850;DHT22;2951;47.712;9.400;2022-10-26T14:17:21;21.30;99.90
5850;DHT22;2951;47.712;9.400;2022-10-26T14:19:50;21.70;99.90
5850;DHT22;2951;47.712;9.400;2022-10-26T14:22:21;21.60;99.90
5850;DHT22;2951;47.712;9.400;2022-10-26T14:24:58;21.40;99.90
5850;DHT22;2951;47.712;9.400;2022-10-26T14:27:26;21.30;99.90
5850;DHT22;2951;47.712;9.400;2022-10-26T14:29:53;21.60;99.90
5850;DHT22;2951;47.712;9.400;2022-10-26T14:32:40;21.90;99.90
5850;DHT22;2951;47.712;9.400;2022-10-26T14:35:10;21.90;99.90
5850;DHT22;2951;47.712;9.400;2022-10-26T14:37:39;21.80;99.90
5850;DHT22;2951;47.712;9.400;2022-10-26T14:40:17;21.70;99.90
5850;DHT22;2951;47.712;9.400;2022-10-26T14:42:46;21.80;99.90
5850;DHT22;2951;47.712;9.400;2022-10-26T14:45:23;22.00;99.90
5850;DHT22;2951;47.712;9.400;2022-10-26T14:47:55;22.20;99.90
5850;DHT22;2951;47.712;9.400;2022-10-26T14:50:23;22.10;99.90
5850;DHT22;2951;47.712;9.400;2022-10-26T14:52:50;21.90;99.90
5850;DHT22;2951;47.712;9.400;2022-10-26T14:55:18;21.80;99.90
5850;DHT22;2951;47.712;9.400;2022-10-26T14:57:45;21.40;99.90
5850;DHT22;2951;47.712;9.400;2022-10-26T15:00:16;21.00;99.90
5850;DHT22;2951;47.712;9.400;2022-10-26T15:02:45;20.60;99.90
5850;DHT22;2951;47.712;9.400;2022-10-26T15:05:17;20.40;99.90
5850;DHT22;2951;47.712;9.400;2022-10-26T15:07:43;20.20;99.90
5850;DHT22;2951;47.712;9.400;2022-10-26T15:12:56;19.70;99.90
5850;DHT22;2951;47.712;9.400;2022-10-26T15:15:23;19.70;99.90
5850;DHT22;2951;47.712;9.400;2022-10-26T15:17:52;19.70;99.90
5850;DHT22;2951;47.712;9.400;2022-10-26T15:20:20;19.60;99.90
5850;DHT22;2951;47.712;9.400;2022-10-26T15:22:51;19.50;99.90
5850;DHT22;2951;47.712;9.400;2022-10-26T15:25:19;19.70;99.90
5850;DHT22;2951;47.712;9.400;2022-10-26T15:27:47;19.90;99.90
5850;DHT22;2951;47.712;9.400;2022-10-26T15:30:21;20.00;99.90
5850;DHT22;2951;47.712;9.400;2022-10-26T15:32:49;19.90;99.90
5850;DHT22;2951;47.712;9.400;2022-10-26T15:38:13;19.90;99.90
5850;DHT22;2951;47.712;9.400;2022-10-26T15:40:43;19.90;99.90
5850;DHT22;2951;47.712;9.400;2022-10-26T15:43:10;19.70;99.90
5850;DHT22;2951;47.712;9.400;2022-10-26T15:45:43;19.50;99.90
5850;DHT22;2951;47.712;9.400;2022-10-26T15:48:17;19.30;99.90
5850;DHT22;2951;47.712;9.400;2022-10-26T15:50:44;19.20;99.90
5850;DHT22;2951;47.712;9.400;2022-10-26T15:53:14;19.00;99.90
5850;DHT22;2951;47.712;9.400;2022-10-26T15:55:42;18.80;99.90
5850;DHT22;2951;47.712;9.400;2022-10-26T15:58:09;18.60;99.90
5850;DHT22;2951;47.712;9.400;2022-10-26T16:00:36;18.30;99.90
5850;DHT22;2951;47.712;9.400;2022-10-26T16:03:03;18.10;99.90
5850;DHT22;2951;47.712;9.400;2022-10-26T16:05:30;18.00;99.90
5850;DHT22;2951;47.712;9.400;2022-10-26T16:08:01;17.80;99.90
5850;DHT22;2951;47.712;9.400;2022-10-26T16:10:28;17.60;99.90
5850;DHT22;2951;47.712;9.400;2022-10-26T16:12:55;17.50;99.90
5850;DHT22;2951;47.712;9.400;2022-10-26T16:15:22;17.30;99.90
5850;DHT22;2951;47.712;9.400;2022-10-26T16:17:49;17.10;99.90
5850;DHT22;2951;47.712;9.400;2022-10-26T16:20:18;16.90;99.90
5850;DHT22;2951;47.712;9.400;2022-10-26T16:22:46;16.70;99.90
5850;DHT22;2951;47.712;9.400;2022-10-26T16:25:17;16.60;99.90
5850;DHT22;2951;47.712;9.400;2022-10-26T16:27:45;16.50;99.90
5850;DHT22;2951;47.712;9.400;2022-10-26T16:30:12;16.40;99.90
5850;DHT22;2951;47.712;9.400;2022-10-26T16:32:39;16.40;99.90
5850;DHT22;2951;47.712;9.400;2022-10-26T16:35:06;16.30;99.90
5850;DHT22;2951;47.712;9.400;2022-10-26T16:37:33;16.20;99.90
5850;DHT22;2951;47.712;9.400;2022-10-26T16:40:00;16.10;99.90
5850;DHT22;2951;47.712;9.400;2022-10-26T16:42:26;16.10;99.90
5850;DHT22;2951;47.712;9.400;2022-10-26T16:44:53;16.00;99.90
5850;DHT22;2951;47.712;9.400;2022-10-26T16:47:25;15.90;99.90
5850;DHT22;2951;47.712;9.400;2022-10-26T16:49:52;15.80;99.90
5850;DHT22;2951;47.712;9.400;2022-10-26T16:52:19;15.80;99.90
5850;DHT22;2951;47.712;9.400;2022-10-26T16:54:45;15.70;99.90
5850;DHT22;2951;47.712;9.400;2022-10-26T16:57:12;15.60;99.90
5850;DHT22;2951;47.712;9.400;2022-10-26T16:59:39;15.60;99.90
5850;DHT22;2951;47.712;9.400;2022-10-26T17:02:05;15.40;99.90
5850;DHT22;2951;47.712;9.400;2022-10-26T17:04:32;15.30;99.90
5850;DHT22;2951;47.712;9.400;2022-10-26T17:06:59;15.30;99.90
5850;DHT22;2951;47.712;9.400;2022-10-26T17:09:25;15.20;99.90
5850;DHT22;2951;47.712;9.400;2022-10-26T17:11:53;15.20;99.90
5850;DHT22;2951;47.712;9.400;2022-10-26T17:14:24;15.10;99.90
5850;DHT22;2951;47.712;9.400;2022-10-26T17:16:51;15.10;99.90
5850;DHT22;2951;47.712;9.400;2022-10-26T17:19:18;15.10;99.90
5850;DHT22;2951;47.712;9.400;2022-10-26T17:21:44;15.00;99.90
5850;DHT22;2951;47.712;9.400;2022-10-26T17:24:11;14.90;99.90
5850;DHT22;2951;47.712;9.400;2022-10-26T17:26:39;14.80;99.90
5850;DHT22;2951;47.712;9.400;2022-10-26T17:29:06;14.80;99.90
5850;DHT22;2951;47.712;9.400;2022-10-26T17:31:32;14.70;99.90
5850;DHT22;2951;47.712;9.400;2022-10-26T17:33:59;14.60;99.90
5850;DHT22;2951;47.712;9.400;2022-10-26T17:36:26;14.60;99.90
5850;DHT22;2951;47.712;9.400;2022-10-26T17:38:53;14.60;99.90
5850;DHT22;2951;47.712;9.400;2022-10-26T17:41:20;14.60;99.90
5850;DHT22;2951;47.712;9.400;2022-10-26T17:43:47;14.60;99.90
5850;DHT22;2951;47.712;9.400;2022-10-26T17:46:15;14.40;99.90
5850;DHT22;2951;47.712;9.400;2022-10-26T17:48:42;14.40;99.90
5850;DHT22;2951;47.712;9.400;2022-10-26T17:51:14;14.30;99.90
5850;DHT22;2951;47.712;9.400;2022-10-26T17:53:40;14.30;99.90
5850;DHT22;2951;47.712;9.400;2022-10-26T17:58:34;14.20;99.90
5850;DHT22;2951;47.712;9.400;2022-10-26T18:01:02;14.30;99.90
5850;DHT22;2951;47.712;9.400;2022-10-26T18:03:29;14.20;99.90
5850;DHT22;2951;47.712;9.400;2022-10-26T18:05:56;14.10;99.90
5850;DHT22;2951;47.712;9.400;2022-10-26T18:08:22;14.20;99.90
5850;DHT22;2951;47.712;9.400;2022-10-26T18:10:50;14.10;99.90
5850;DHT22;2951;47.712;9.400;2022-10-26T18:13:17;14.00;99.90
5850;DHT22;2951;47.712;9.400;2022-10-26T18:15:44;14.00;99.90
5850;DHT22;2951;47.712;9.400;2022-10-26T18:18:11;14.00;99.90
5850;DHT22;2951;47.712;9.400;2022-10-26T18:20:37;13.90;99.90
5850;DHT22;2951;47.712;9.400;2022-10-26T18:23:04;13.90;99.90